Airfield :
LOGIN :

Register | Disclaimer

   EN    FR    IT 

 










Legend :    VFR   Marginal VFR   IFR   Intensive IFR   Very Intensive IFR
Visi :
Ceiling :
>= 8 km
>= 3000ft
5 to 8 km
1000 to 3000 ft
1500m to 5 km
500 to 1000 ft
800 to 1500m
200 to 500 ft
< 800m
< 200 ft
Symbols :   Thunderstorms  Fog  Heavy snow  Heavy precipitations  Wind > 20 kt
SIGMETs :     Misc.  Thunderstorms  Icing  Turbulence  Mountain Waves  Volcanic Ashes






- Airport Elevation : 330 ft
- IATA code : LVA


LFOV - Laval-Entrammes

CURRENT METAR :
  • 072100Z AUTO 03002KT 9999 -RA ///TCU 16/12 Q1024

EXPIRED METARs :
  • 072030Z AUTO VRB03KT 9999 ///CB 16/12 Q1024
  • 072000Z AUTO VRB01KT 9999 ///CB 17/12 Q1024
  • 071930Z AUTO 01001KT CAVOK 17/11 Q1024
  • 071900Z AUTO 03002KT CAVOK 17/11 Q1024
  • 071830Z AUTO 04003KT CAVOK 17/12 Q1023

TAF N/A



MET'MAP, your aeronautical weather chart ! - Copyright ORBIFLY December 2007 - Disclaimer

ORBIFLY MET'MAP TEAM :

Programming & Development : Alexandra Zaïnal
Concept & original design : Baudouin d'Aumeries
Assistance for programming : Marc-Olivier Méhu
Technical & hardware support : Manuel Goepfert

Contact : metmap@orbifly.com




SOURCES & CREDITS :

   NOAA